Tenerife Sur, Canary Islands

02:11 AM WEST del 29 Agosto 2014 (GMT +0100)
Reina Sofia | Change Station
CLOSE
Current Station
Aeroporto
Location: Tenerife Sur,
Altitudine: 253 ft
Stazioni meteo nelle vicinanze

Alt. 253 ft 28.05 °N, 16.56 °W | Updated 11 minutes ago

Clear
Sereno
73 °F
Sembra 73 °F
N
2
Vento Variabile Vento da Variabile

Oggi
Massima -- | Minima -- °F
--% Possibilità di precip.
Ieri
Massima -- | Minima -- °F
Precip. -- in
7:43 AM 8:30 PM
Luna crescente, 11% visible
Pressione 30.04 in
Visibilità -9999.0 miglia
Nuvole
Punto di rugiada 68 °F
Umidità 83%
Piovosità 0.00 in
Spessore del manto nevoso Non disponibile.
Raggi UV Non disponibile.
Polline Non disponibile.
Qualità dell'aria Non disponibile.
Flu Activity Non disponibile.
METAR GCTS 290100Z VRB02KT CAVOK 23/20 Q1017 NOSIG

More Conditions Fewer Conditions

Pressione 30.04 in
Visibilità -9999.0 miglia
Nuvole
Punto di rugiada 68 °F
Umidità 83%
Piovosità 0.00 in
Spessore del manto nevoso Non disponibile.
Raggi UV Non disponibile.
Polline Non disponibile.
Qualità dell'aria Non disponibile.
Flu Activity Non disponibile.
METAR GCTS 290100Z VRB02KT CAVOK 23/20 Q1017 NOSIG

More Conditions Fewer Conditions

10-Day Weather Forecast

Almanac

Astronomia

Aug. 29, 2014 Alba Tramonto
Ora attuale 07:43 WEST 20:30 WEST
Crepuscolo civile 07:19 WEST 20:54 WEST
Crepuscolo nautico 06:51 WEST 21:22 WEST
Crepuscolo astronomico 06:22 WEST 21:51 WEST
Luna 10:59 WEST 22:45 WEST
Estensione della luce visibile 13h 35m
Lunghezza del giorno
12h 47m
Tomorrow will be 1m 35s shorter.
Luna crescente, 11% of the Moon is Illuminated
Ago 28
Luna crescente
Set 2
Primo quarto
Set 8
Luna piena
Set 15
Ultimo quarto
Set 24
Nuovo

Minime e massime di ieri

Massime Regione Minime Regione

Community

WunderPhotos

Upload Photos

1,748,126 foto caricate!

Nearby

Qualità dell'aria

Not available.

Profondità neve

Not available.

Attività sismica

Città  Distanza Mag. Data & Ora
Non sono state riportate attività sismiche nelle vicinanze.
Minimo Magnitudo Mostrato è 2.5.

Temperature delle acque costiere

Località Temperatura
Nessun dato dalle stazioni

Stazioni meteo nelle vicinanze